sensor_id;sensor_type;location;lat;lon;timestamp;P1;durP1;ratioP1;P2;durP2;ratioP2
24739;SDS011;45234;48.148;17.128;2022-11-14T00:01:06;151.60;;;58.87;;
24739;SDS011;45234;48.148;17.128;2022-11-14T00:03:53;140.48;;;60.10;;
24739;SDS011;45234;48.148;17.128;2022-11-14T00:06:38;169.10;;;61.65;;
24739;SDS011;45234;48.148;17.128;2022-11-14T00:09:24;221.05;;;62.55;;
24739;SDS011;45234;48.148;17.128;2022-11-14T00:12:11;138.68;;;59.15;;
24739;SDS011;45234;48.148;17.128;2022-11-14T00:14:56;171.57;;;61.72;;
24739;SDS011;45234;48.148;17.128;2022-11-14T00:17:41;214.85;;;65.95;;
24739;SDS011;45234;48.148;17.128;2022-11-14T00:20:27;143.07;;;58.60;;
24739;SDS011;45234;48.148;17.128;2022-11-14T00:23:12;187.18;;;59.47;;
24739;SDS011;45234;48.148;17.128;2022-11-14T00:25:57;220.82;;;63.75;;
24739;SDS011;45234;48.148;17.128;2022-11-14T00:28:42;208.07;;;64.50;;
24739;SDS011;45234;48.148;17.128;2022-11-14T00:31:28;286.77;;;63.92;;
24739;SDS011;45234;48.148;17.128;2022-11-14T00:34:13;267.10;;;65.22;;
24739;SDS011;45234;48.148;17.128;2022-11-14T00:36:58;180.57;;;62.72;;
24739;SDS011;45234;48.148;17.128;2022-11-14T00:39:44;314.65;;;67.03;;
24739;SDS011;45234;48.148;17.128;2022-11-14T00:42:31;326.73;;;72.50;;
24739;SDS011;45234;48.148;17.128;2022-11-14T00:45:17;355.92;;;69.80;;
24739;SDS011;45234;48.148;17.128;2022-11-14T00:48:02;311.88;;;62.63;;
24739;SDS011;45234;48.148;17.128;2022-11-14T00:50:48;303.80;;;67.50;;
24739;SDS011;45234;48.148;17.128;2022-11-14T00:53:33;363.42;;;69.03;;
24739;SDS011;45234;48.148;17.128;2022-11-14T00:56:19;355.25;;;69.22;;
24739;SDS011;45234;48.148;17.128;2022-11-14T00:59:04;360.83;;;66.97;;
24739;SDS011;45234;48.148;17.128;2022-11-14T01:01:49;350.90;;;77.15;;
24739;SDS011;45234;48.148;17.128;2022-11-14T01:04:40;268.05;;;65.38;;
24739;SDS011;45234;48.148;17.128;2022-11-14T01:07:25;255.02;;;66.22;;
24739;SDS011;45234;48.148;17.128;2022-11-14T01:10:11;233.25;;;65.45;;
24739;SDS011;45234;48.148;17.128;2022-11-14T01:12:56;169.98;;;58.47;;
24739;SDS011;45234;48.148;17.128;2022-11-14T01:15:42;176.73;;;60.67;;
24739;SDS011;45234;48.148;17.128;2022-11-14T01:18:29;141.80;;;53.83;;
24739;SDS011;45234;48.148;17.128;2022-11-14T01:21:15;126.90;;;51.20;;
24739;SDS011;45234;48.148;17.128;2022-11-14T01:24:01;98.07;;;47.00;;
24739;SDS011;45234;48.148;17.128;2022-11-14T01:26:46;124.05;;;50.88;;
24739;SDS011;45234;48.148;17.128;2022-11-14T01:29:31;100.90;;;47.55;;
24739;SDS011;45234;48.148;17.128;2022-11-14T01:32:16;92.30;;;45.35;;
24739;SDS011;45234;48.148;17.128;2022-11-14T01:35:01;103.85;;;44.55;;
24739;SDS011;45234;48.148;17.128;2022-11-14T01:37:47;94.68;;;46.60;;
24739;SDS011;45234;48.148;17.128;2022-11-14T01:40:32;94.20;;;42.75;;
24739;SDS011;45234;48.148;17.128;2022-11-14T01:46:04;96.70;;;45.58;;
24739;SDS011;45234;48.148;17.128;2022-11-14T01:49:21;80.63;;;42.95;;
24739;SDS011;45234;48.148;17.128;2022-11-14T01:52:11;84.15;;;43.80;;
24739;SDS011;45234;48.148;17.128;2022-11-14T01:55:00;84.80;;;41.90;;
24739;SDS011;45234;48.148;17.128;2022-11-14T01:57:49;78.75;;;41.53;;
24739;SDS011;45234;48.148;17.128;2022-11-14T02:00:34;84.25;;;43.00;;
24739;SDS011;45234;48.148;17.128;2022-11-14T02:03:19;74.20;;;39.58;;
24739;SDS011;45234;48.148;17.128;2022-11-14T02:06:05;71.72;;;40.30;;
24739;SDS011;45234;48.148;17.128;2022-11-14T02:08:52;73.43;;;41.08;;
24739;SDS011;45234;48.148;17.128;2022-11-14T02:11:43;76.13;;;39.88;;
24739;SDS011;45234;48.148;17.128;2022-11-14T02:14:29;73.97;;;40.33;;
24739;SDS011;45234;48.148;17.128;2022-11-14T02:17:16;76.68;;;40.33;;
24739;SDS011;45234;48.148;17.128;2022-11-14T02:20:25;65.53;;;38.43;;
24739;SDS011;45234;48.148;17.128;2022-11-14T02:23:23;71.70;;;39.85;;
24739;SDS011;45234;48.148;17.128;2022-11-14T02:26:15;67.80;;;38.67;;
24739;SDS011;45234;48.148;17.128;2022-11-14T02:29:05;70.28;;;38.08;;
24739;SDS011;45234;48.148;17.128;2022-11-14T02:31:51;67.00;;;38.47;;
24739;SDS011;45234;48.148;17.128;2022-11-14T02:34:36;63.42;;;36.85;;
24739;SDS011;45234;48.148;17.128;2022-11-14T02:37:22;60.30;;;36.33;;
24739;SDS011;45234;48.148;17.128;2022-11-14T02:40:08;64.88;;;35.75;;
24739;SDS011;45234;48.148;17.128;2022-11-14T02:42:53;57.67;;;35.83;;
24739;SDS011;45234;48.148;17.128;2022-11-14T02:45:39;68.03;;;37.05;;
24739;SDS011;45234;48.148;17.128;2022-11-14T02:48:25;62.90;;;37.25;;
24739;SDS011;45234;48.148;17.128;2022-11-14T02:51:10;63.03;;;36.42;;
24739;SDS011;45234;48.148;17.128;2022-11-14T02:53:55;58.63;;;34.83;;
24739;SDS011;45234;48.148;17.128;2022-11-14T02:56:41;58.97;;;36.30;;
24739;SDS011;45234;48.148;17.128;2022-11-14T02:59:26;57.35;;;35.83;;
24739;SDS011;45234;48.148;17.128;2022-11-14T03:02:11;64.03;;;38.67;;
24739;SDS011;45234;48.148;17.128;2022-11-14T03:04:57;58.42;;;35.05;;
24739;SDS011;45234;48.148;17.128;2022-11-14T03:07:42;58.42;;;36.00;;
24739;SDS011;45234;48.148;17.128;2022-11-14T03:10:28;58.22;;;34.38;;
24739;SDS011;45234;48.148;17.128;2022-11-14T03:13:13;55.78;;;33.30;;
24739;SDS011;45234;48.148;17.128;2022-11-14T03:16:05;55.35;;;34.92;;
24739;SDS011;45234;48.148;17.128;2022-11-14T03:18:51;52.35;;;33.17;;
24739;SDS011;45234;48.148;17.128;2022-11-14T03:21:36;52.90;;;33.78;;
24739;SDS011;45234;48.148;17.128;2022-11-14T03:24:23;54.22;;;34.63;;
24739;SDS011;45234;48.148;17.128;2022-11-14T03:27:08;55.70;;;34.00;;
24739;SDS011;45234;48.148;17.128;2022-11-14T03:29:54;56.55;;;34.05;;
24739;SDS011;45234;48.148;17.128;2022-11-14T03:32:39;56.20;;;34.65;;
24739;SDS011;45234;48.148;17.128;2022-11-14T03:35:25;56.95;;;36.05;;
24739;SDS011;45234;48.148;17.128;2022-11-14T03:38:10;58.00;;;35.53;;
24739;SDS011;45234;48.148;17.128;2022-11-14T03:40:56;61.40;;;35.63;;
24739;SDS011;45234;48.148;17.128;2022-11-14T03:43:43;55.08;;;35.20;;
24739;SDS011;45234;48.148;17.128;2022-11-14T03:46:28;58.35;;;36.72;;
24739;SDS011;45234;48.148;17.128;2022-11-14T03:49:13;64.18;;;37.38;;
24739;SDS011;45234;48.148;17.128;2022-11-14T03:51:59;60.05;;;36.17;;
24739;SDS011;45234;48.148;17.128;2022-11-14T03:54:44;62.58;;;37.00;;
24739;SDS011;45234;48.148;17.128;2022-11-14T03:57:29;62.70;;;41.33;;
24739;SDS011;45234;48.148;17.128;2022-11-14T04:00:14;60.80;;;38.90;;
24739;SDS011;45234;48.148;17.128;2022-11-14T04:03:00;64.40;;;38.40;;
24739;SDS011;45234;48.148;17.128;2022-11-14T04:05:45;64.60;;;38.85;;
24739;SDS011;45234;48.148;17.128;2022-11-14T04:08:31;58.10;;;36.33;;
24739;SDS011;45234;48.148;17.128;2022-11-14T04:11:17;62.78;;;37.47;;
24739;SDS011;45234;48.148;17.128;2022-11-14T04:14:02;55.22;;;34.50;;
24739;SDS011;45234;48.148;17.128;2022-11-14T04:16:47;59.05;;;34.78;;
24739;SDS011;45234;48.148;17.128;2022-11-14T04:19:33;56.28;;;33.40;;
24739;SDS011;45234;48.148;17.128;2022-11-14T04:22:18;58.25;;;35.60;;
24739;SDS011;45234;48.148;17.128;2022-11-14T04:25:04;53.78;;;34.33;;
24739;SDS011;45234;48.148;17.128;2022-11-14T04:27:49;59.58;;;34.42;;
24739;SDS011;45234;48.148;17.128;2022-11-14T04:30:35;57.30;;;34.67;;
24739;SDS011;45234;48.148;17.128;2022-11-14T04:33:20;55.30;;;34.58;;
24739;SDS011;45234;48.148;17.128;2022-11-14T04:36:05;58.80;;;36.10;;
24739;SDS011;45234;48.148;17.128;2022-11-14T04:38:51;60.88;;;36.35;;
24739;SDS011;45234;48.148;17.128;2022-11-14T04:41:36;56.03;;;34.35;;
24739;SDS011;45234;48.148;17.128;2022-11-14T04:44:21;56.22;;;35.58;;
24739;SDS011;45234;48.148;17.128;2022-11-14T04:47:07;57.60;;;37.38;;
24739;SDS011;45234;48.148;17.128;2022-11-14T04:49:52;56.97;;;34.22;;
24739;SDS011;45234;48.148;17.128;2022-11-14T04:52:37;62.25;;;35.35;;
24739;SDS011;45234;48.148;17.128;2022-11-14T04:55:22;52.90;;;34.20;;
24739;SDS011;45234;48.148;17.128;2022-11-14T04:58:07;52.47;;;35.40;;
24739;SDS011;45234;48.148;17.128;2022-11-14T05:00:53;54.85;;;32.50;;
24739;SDS011;45234;48.148;17.128;2022-11-14T05:03:42;51.95;;;34.08;;
24739;SDS011;45234;48.148;17.128;2022-11-14T05:06:26;57.72;;;34.35;;
24739;SDS011;45234;48.148;17.128;2022-11-14T05:09:12;51.33;;;33.22;;
24739;SDS011;45234;48.148;17.128;2022-11-14T05:11:57;57.30;;;34.63;;
24739;SDS011;45234;48.148;17.128;2022-11-14T05:14:42;53.55;;;33.78;;
24739;SDS011;45234;48.148;17.128;2022-11-14T05:17:27;52.45;;;33.20;;
24739;SDS011;45234;48.148;17.128;2022-11-14T05:20:13;53.35;;;32.97;;
24739;SDS011;45234;48.148;17.128;2022-11-14T05:22:58;47.35;;;31.42;;
24739;SDS011;45234;48.148;17.128;2022-11-14T05:25:43;51.45;;;31.83;;
24739;SDS011;45234;48.148;17.128;2022-11-14T05:28:29;52.00;;;33.58;;
24739;SDS011;45234;48.148;17.128;2022-11-14T05:31:15;52.95;;;33.42;;
24739;SDS011;45234;48.148;17.128;2022-11-14T05:34:01;49.55;;;31.52;;
24739;SDS011;45234;48.148;17.128;2022-11-14T05:36:46;50.03;;;32.65;;
24739;SDS011;45234;48.148;17.128;2022-11-14T05:39:32;52.78;;;32.10;;
24739;SDS011;45234;48.148;17.128;2022-11-14T05:42:17;58.90;;;33.38;;
24739;SDS011;45234;48.148;17.128;2022-11-14T05:45:02;47.67;;;32.17;;
24739;SDS011;45234;48.148;17.128;2022-11-14T05:47:47;51.33;;;33.67;;
24739;SDS011;45234;48.148;17.128;2022-11-14T05:50:33;54.90;;;32.55;;
24739;SDS011;45234;48.148;17.128;2022-11-14T05:53:19;55.78;;;31.08;;
24739;SDS011;45234;48.148;17.128;2022-11-14T05:56:05;51.03;;;31.15;;
24739;SDS011;45234;48.148;17.128;2022-11-14T05:58:53;52.35;;;32.00;;
24739;SDS011;45234;48.148;17.128;2022-11-14T06:01:39;46.45;;;29.73;;
24739;SDS011;45234;48.148;17.128;2022-11-14T06:04:24;57.53;;;31.08;;
24739;SDS011;45234;48.148;17.128;2022-11-14T06:07:10;52.00;;;31.65;;
24739;SDS011;45234;48.148;17.128;2022-11-14T06:10:02;55.08;;;32.55;;
24739;SDS011;45234;48.148;17.128;2022-11-14T06:12:48;51.42;;;32.92;;
24739;SDS011;45234;48.148;17.128;2022-11-14T06:15:33;57.25;;;33.33;;
24739;SDS011;45234;48.148;17.128;2022-11-14T06:18:19;54.70;;;32.72;;
24739;SDS011;45234;48.148;17.128;2022-11-14T06:21:05;52.65;;;32.00;;
24739;SDS011;45234;48.148;17.128;2022-11-14T06:23:53;52.17;;;32.35;;
24739;SDS011;45234;48.148;17.128;2022-11-14T06:26:38;50.45;;;31.98;;
24739;SDS011;45234;48.148;17.128;2022-11-14T06:29:24;51.45;;;32.55;;
24739;SDS011;45234;48.148;17.128;2022-11-14T06:32:17;57.80;;;34.13;;
24739;SDS011;45234;48.148;17.128;2022-11-14T06:35:02;52.33;;;32.05;;
24739;SDS011;45234;48.148;17.128;2022-11-14T06:37:48;50.55;;;31.10;;
24739;SDS011;45234;48.148;17.128;2022-11-14T06:40:33;52.97;;;32.05;;
24739;SDS011;45234;48.148;17.128;2022-11-14T06:43:18;52.42;;;31.88;;
24739;SDS011;45234;48.148;17.128;2022-11-14T06:46:04;52.63;;;32.03;;
24739;SDS011;45234;48.148;17.128;2022-11-14T06:48:50;54.60;;;32.83;;
24739;SDS011;45234;48.148;17.128;2022-11-14T06:51:36;53.28;;;30.95;;
24739;SDS011;45234;48.148;17.128;2022-11-14T06:54:21;50.15;;;32.63;;
24739;SDS011;45234;48.148;17.128;2022-11-14T06:57:06;52.58;;;29.85;;
24739;SDS011;45234;48.148;17.128;2022-11-14T06:59:51;49.13;;;31.90;;
24739;SDS011;45234;48.148;17.128;2022-11-14T07:02:37;58.95;;;30.88;;
24739;SDS011;45234;48.148;17.128;2022-11-14T07:05:22;50.10;;;30.60;;
24739;SDS011;45234;48.148;17.128;2022-11-14T07:08:07;47.55;;;30.58;;
24739;SDS011;45234;48.148;17.128;2022-11-14T07:10:52;47.50;;;30.55;;
24739;SDS011;45234;48.148;17.128;2022-11-14T07:13:43;54.65;;;32.15;;
24739;SDS011;45234;48.148;17.128;2022-11-14T07:16:29;46.58;;;29.88;;
24739;SDS011;45234;48.148;17.128;2022-11-14T07:19:16;48.67;;;30.02;;
24739;SDS011;45234;48.148;17.128;2022-11-14T07:22:01;51.78;;;30.52;;
24739;SDS011;45234;48.148;17.128;2022-11-14T07:24:46;38.53;;;27.98;;
24739;SDS011;45234;48.148;17.128;2022-11-14T07:27:31;47.78;;;28.92;;
24739;SDS011;45234;48.148;17.128;2022-11-14T07:30:16;45.05;;;27.83;;
24739;SDS011;45234;48.148;17.128;2022-11-14T07:33:02;43.00;;;28.50;;
24739;SDS011;45234;48.148;17.128;2022-11-14T07:35:47;41.67;;;26.98;;
24739;SDS011;45234;48.148;17.128;2022-11-14T07:38:34;43.28;;;27.77;;
24739;SDS011;45234;48.148;17.128;2022-11-14T07:41:20;45.83;;;28.02;;
24739;SDS011;45234;48.148;17.128;2022-11-14T07:44:06;45.88;;;28.25;;
24739;SDS011;45234;48.148;17.128;2022-11-14T07:46:51;51.88;;;28.67;;
24739;SDS011;45234;48.148;17.128;2022-11-14T07:49:36;50.60;;;28.63;;
24739;SDS011;45234;48.148;17.128;2022-11-14T07:52:21;44.83;;;29.05;;
24739;SDS011;45234;48.148;17.128;2022-11-14T07:55:07;41.45;;;26.80;;
24739;SDS011;45234;48.148;17.128;2022-11-14T07:57:52;41.67;;;26.77;;
24739;SDS011;45234;48.148;17.128;2022-11-14T08:00:38;46.78;;;26.48;;
24739;SDS011;45234;48.148;17.128;2022-11-14T08:03:27;45.08;;;27.27;;
24739;SDS011;45234;48.148;17.128;2022-11-14T08:06:13;42.78;;;26.58;;
24739;SDS011;45234;48.148;17.128;2022-11-14T08:08:59;47.40;;;27.63;;
24739;SDS011;45234;48.148;17.128;2022-11-14T08:11:45;36.95;;;25.30;;
24739;SDS011;45234;48.148;17.128;2022-11-14T08:14:30;39.13;;;27.35;;
24739;SDS011;45234;48.148;17.128;2022-11-14T08:17:16;41.55;;;26.55;;
24739;SDS011;45234;48.148;17.128;2022-11-14T08:20:02;41.30;;;26.50;;
24739;SDS011;45234;48.148;17.128;2022-11-14T08:22:48;36.60;;;25.92;;
24739;SDS011;45234;48.148;17.128;2022-11-14T08:25:33;41.15;;;26.83;;
24739;SDS011;45234;48.148;17.128;2022-11-14T08:28:18;41.33;;;24.42;;
24739;SDS011;45234;48.148;17.128;2022-11-14T08:31:04;37.85;;;24.85;;
24739;SDS011;45234;48.148;17.128;2022-11-14T08:33:52;39.58;;;25.40;;
24739;SDS011;45234;48.148;17.128;2022-11-14T08:36:38;40.50;;;24.40;;
24739;SDS011;45234;48.148;17.128;2022-11-14T08:39:23;42.95;;;24.40;;
24739;SDS011;45234;48.148;17.128;2022-11-14T08:42:08;32.88;;;22.30;;
24739;SDS011;45234;48.148;17.128;2022-11-14T08:44:54;35.53;;;23.98;;
24739;SDS011;45234;48.148;17.128;2022-11-14T08:47:39;38.75;;;26.58;;
24739;SDS011;45234;48.148;17.128;2022-11-14T08:50:24;35.65;;;24.13;;
24739;SDS011;45234;48.148;17.128;2022-11-14T08:53:09;38.42;;;25.20;;
24739;SDS011;45234;48.148;17.128;2022-11-14T08:55:55;40.65;;;25.40;;
24739;SDS011;45234;48.148;17.128;2022-11-14T08:58:40;37.85;;;23.63;;
24739;SDS011;45234;48.148;17.128;2022-11-14T09:01:25;34.88;;;23.52;;
24739;SDS011;45234;48.148;17.128;2022-11-14T09:04:11;37.35;;;23.95;;
24739;SDS011;45234;48.148;17.128;2022-11-14T09:06:56;40.85;;;25.23;;
24739;SDS011;45234;48.148;17.128;2022-11-14T09:09:42;35.25;;;24.10;;
24739;SDS011;45234;48.148;17.128;2022-11-14T09:12:27;39.55;;;24.08;;
24739;SDS011;45234;48.148;17.128;2022-11-14T09:15:13;36.67;;;23.23;;
24739;SDS011;45234;48.148;17.128;2022-11-14T09:17:58;36.40;;;23.10;;
24739;SDS011;45234;48.148;17.128;2022-11-14T09:20:44;33.60;;;23.90;;
24739;SDS011;45234;48.148;17.128;2022-11-14T09:23:29;36.60;;;24.15;;
24739;SDS011;45234;48.148;17.128;2022-11-14T09:26:15;36.58;;;22.38;;
24739;SDS011;45234;48.148;17.128;2022-11-14T09:29:04;36.17;;;22.08;;
24739;SDS011;45234;48.148;17.128;2022-11-14T09:31:50;41.35;;;23.30;;
24739;SDS011;45234;48.148;17.128;2022-11-14T09:34:38;33.28;;;22.13;;
24739;SDS011;45234;48.148;17.128;2022-11-14T09:37:27;36.78;;;22.65;;
24739;SDS011;45234;48.148;17.128;2022-11-14T09:40:13;33.30;;;22.60;;
24739;SDS011;45234;48.148;17.128;2022-11-14T09:45:47;29.98;;;21.20;;
24739;SDS011;45234;48.148;17.128;2022-11-14T09:48:35;34.03;;;21.92;;
24739;SDS011;45234;48.148;17.128;2022-11-14T09:51:21;34.13;;;22.88;;
24739;SDS011;45234;48.148;17.128;2022-11-14T09:54:15;31.65;;;22.52;;
24739;SDS011;45234;48.148;17.128;2022-11-14T09:57:09;34.25;;;22.63;;
24739;SDS011;45234;48.148;17.128;2022-11-14T10:00:02;35.90;;;22.08;;
24739;SDS011;45234;48.148;17.128;2022-11-14T10:06:23;32.22;;;21.58;;
24739;SDS011;45234;48.148;17.128;2022-11-14T10:09:28;33.60;;;22.15;;
24739;SDS011;45234;48.148;17.128;2022-11-14T10:12:49;35.55;;;23.35;;
24739;SDS011;45234;48.148;17.128;2022-11-14T10:15:48;34.85;;;21.55;;
24739;SDS011;45234;48.148;17.128;2022-11-14T10:25:29;32.05;;;21.38;;
24739;SDS011;45234;48.148;17.128;2022-11-14T10:34:50;33.83;;;21.13;;
24739;SDS011;45234;48.148;17.128;2022-11-14T10:40:48;30.88;;;21.50;;
24739;SDS011;45234;48.148;17.128;2022-11-14T10:43:44;26.20;;;19.67;;
24739;SDS011;45234;48.148;17.128;2022-11-14T10:46:38;33.30;;;20.23;;
24739;SDS011;45234;48.148;17.128;2022-11-14T10:49:31;29.85;;;20.13;;
24739;SDS011;45234;48.148;17.128;2022-11-14T10:52:25;29.23;;;20.13;;
24739;SDS011;45234;48.148;17.128;2022-11-14T10:55:22;33.10;;;21.17;;
24739;SDS011;45234;48.148;17.128;2022-11-14T10:58:28;30.55;;;20.73;;
24739;SDS011;45234;48.148;17.128;2022-11-14T11:04:39;30.95;;;20.52;;
24739;SDS011;45234;48.148;17.128;2022-11-14T11:07:27;28.95;;;19.73;;
24739;SDS011;45234;48.148;17.128;2022-11-14T11:10:31;32.13;;;19.75;;
24739;SDS011;45234;48.148;17.128;2022-11-14T11:13:39;34.13;;;19.48;;
24739;SDS011;45234;48.148;17.128;2022-11-14T11:16:36;28.13;;;19.23;;
24739;SDS011;45234;48.148;17.128;2022-11-14T11:19:25;28.33;;;19.40;;
24739;SDS011;45234;48.148;17.128;2022-11-14T11:22:27;31.95;;;19.58;;
24739;SDS011;45234;48.148;17.128;2022-11-14T11:25:22;31.95;;;20.00;;
24739;SDS011;45234;48.148;17.128;2022-11-14T11:28:17;32.63;;;19.13;;
24739;SDS011;45234;48.148;17.128;2022-11-14T11:31:05;29.55;;;20.20;;
24739;SDS011;45234;48.148;17.128;2022-11-14T11:33:51;31.27;;;19.95;;
24739;SDS011;45234;48.148;17.128;2022-11-14T11:36:45;35.15;;;19.70;;
24739;SDS011;45234;48.148;17.128;2022-11-14T11:39:35;31.30;;;20.05;;
24739;SDS011;45234;48.148;17.128;2022-11-14T11:42:27;28.77;;;20.40;;
24739;SDS011;45234;48.148;17.128;2022-11-14T11:45:43;32.05;;;20.08;;
24739;SDS011;45234;48.148;17.128;2022-11-14T11:48:38;31.63;;;19.77;;
24739;SDS011;45234;48.148;17.128;2022-11-14T11:51:26;31.15;;;19.77;;
24739;SDS011;45234;48.148;17.128;2022-11-14T11:56:59;27.00;;;19.70;;
24739;SDS011;45234;48.148;17.128;2022-11-14T12:00:03;27.03;;;19.93;;
24739;SDS011;45234;48.148;17.128;2022-11-14T12:02:51;30.52;;;19.73;;
24739;SDS011;45234;48.148;17.128;2022-11-14T12:09:00;30.40;;;19.45;;
24739;SDS011;45234;48.148;17.128;2022-11-14T12:12:00;31.52;;;20.10;;
24739;SDS011;45234;48.148;17.128;2022-11-14T12:14:59;32.55;;;22.45;;
24739;SDS011;45234;48.148;17.128;2022-11-14T12:20:51;29.30;;;19.35;;
24739;SDS011;45234;48.148;17.128;2022-11-14T12:24:23;28.48;;;19.58;;
24739;SDS011;45234;48.148;17.128;2022-11-14T12:32:58;29.90;;;20.45;;
24739;SDS011;45234;48.148;17.128;2022-11-14T12:35:52;28.88;;;20.17;;
24739;SDS011;45234;48.148;17.128;2022-11-14T12:38:50;33.25;;;18.63;;
24739;SDS011;45234;48.148;17.128;2022-11-14T12:41:37;31.00;;;20.30;;
24739;SDS011;45234;48.148;17.128;2022-11-14T12:47:20;27.85;;;19.75;;
24739;SDS011;45234;48.148;17.128;2022-11-14T12:50:27;29.38;;;20.42;;
24739;SDS011;45234;48.148;17.128;2022-11-14T12:56:25;28.08;;;19.40;;
24739;SDS011;45234;48.148;17.128;2022-11-14T12:59:38;28.70;;;20.15;;
24739;SDS011;45234;48.148;17.128;2022-11-14T13:11:47;31.88;;;22.10;;
24739;SDS011;45234;48.148;17.128;2022-11-14T13:14:54;32.25;;;21.23;;
24739;SDS011;45234;48.148;17.128;2022-11-14T13:18:21;36.30;;;22.75;;
24739;SDS011;45234;48.148;17.128;2022-11-14T13:21:27;33.90;;;22.33;;
24739;SDS011;45234;48.148;17.128;2022-11-14T13:27:54;36.63;;;22.25;;
24739;SDS011;45234;48.148;17.128;2022-11-14T13:41:01;34.38;;;22.30;;
24739;SDS011;45234;48.148;17.128;2022-11-14T13:43:52;29.10;;;20.88;;
24739;SDS011;45234;48.148;17.128;2022-11-14T13:52:43;37.53;;;22.23;;
24739;SDS011;45234;48.148;17.128;2022-11-14T14:07:51;29.58;;;20.73;;
24739;SDS011;45234;48.148;17.128;2022-11-14T14:17:21;30.77;;;21.27;;
24739;SDS011;45234;48.148;17.128;2022-11-14T14:26:35;43.08;;;25.77;;
24739;SDS011;45234;48.148;17.128;2022-11-14T14:32:43;37.47;;;25.23;;
24739;SDS011;45234;48.148;17.128;2022-11-14T14:35:53;37.47;;;25.10;;
24739;SDS011;45234;48.148;17.128;2022-11-14T14:38:39;43.80;;;26.77;;
24739;SDS011;45234;48.148;17.128;2022-11-14T14:41:24;42.72;;;27.40;;
24739;SDS011;45234;48.148;17.128;2022-11-14T14:44:16;45.17;;;27.52;;
24739;SDS011;45234;48.148;17.128;2022-11-14T14:47:13;59.83;;;29.63;;
24739;SDS011;45234;48.148;17.128;2022-11-14T14:50:18;77.88;;;42.55;;
24739;SDS011;45234;48.148;17.128;2022-11-14T14:53:06;70.10;;;36.05;;
24739;SDS011;45234;48.148;17.128;2022-11-14T14:56:03;54.30;;;33.42;;
24739;SDS011;45234;48.148;17.128;2022-11-14T14:58:50;62.83;;;33.58;;
24739;SDS011;45234;48.148;17.128;2022-11-14T15:01:35;57.17;;;34.03;;
24739;SDS011;45234;48.148;17.128;2022-11-14T15:04:22;53.08;;;31.58;;
24739;SDS011;45234;48.148;17.128;2022-11-14T15:07:17;49.17;;;32.15;;
24739;SDS011;45234;48.148;17.128;2022-11-14T15:10:05;53.20;;;31.90;;
24739;SDS011;45234;48.148;17.128;2022-11-14T15:12:51;48.53;;;30.27;;
24739;SDS011;45234;48.148;17.128;2022-11-14T15:15:38;51.22;;;32.03;;
24739;SDS011;45234;48.148;17.128;2022-11-14T15:18:27;48.08;;;31.65;;
24739;SDS011;45234;48.148;17.128;2022-11-14T15:27:01;50.50;;;31.88;;
24739;SDS011;45234;48.148;17.128;2022-11-14T15:29:52;50.65;;;33.45;;
24739;SDS011;45234;48.148;17.128;2022-11-14T15:32:46;50.17;;;32.38;;
24739;SDS011;45234;48.148;17.128;2022-11-14T15:35:34;54.28;;;35.15;;
24739;SDS011;45234;48.148;17.128;2022-11-14T15:38:21;59.15;;;35.78;;
24739;SDS011;45234;48.148;17.128;2022-11-14T15:41:27;57.83;;;35.60;;
24739;SDS011;45234;48.148;17.128;2022-11-14T15:47:29;63.03;;;37.70;;
24739;SDS011;45234;48.148;17.128;2022-11-14T15:50:29;60.97;;;37.20;;
24739;SDS011;45234;48.148;17.128;2022-11-14T15:53:17;62.58;;;38.97;;
24739;SDS011;45234;48.148;17.128;2022-11-14T15:56:11;63.38;;;38.83;;
24739;SDS011;45234;48.148;17.128;2022-11-14T15:59:02;70.82;;;40.17;;
24739;SDS011;45234;48.148;17.128;2022-11-14T16:01:48;62.92;;;38.63;;
24739;SDS011;45234;48.148;17.128;2022-11-14T16:04:35;62.00;;;38.10;;
24739;SDS011;45234;48.148;17.128;2022-11-14T16:07:30;71.28;;;39.83;;
24739;SDS011;45234;48.148;17.128;2022-11-14T16:10:17;69.90;;;39.55;;
24739;SDS011;45234;48.148;17.128;2022-11-14T16:13:03;71.05;;;39.80;;
24739;SDS011;45234;48.148;17.128;2022-11-14T16:15:49;76.63;;;38.83;;
24739;SDS011;45234;48.148;17.128;2022-11-14T16:18:36;67.65;;;40.78;;
24739;SDS011;45234;48.148;17.128;2022-11-14T16:21:21;95.93;;;39.58;;
24739;SDS011;45234;48.148;17.128;2022-11-14T16:24:11;69.13;;;40.45;;
24739;SDS011;45234;48.148;17.128;2022-11-14T16:27:02;67.40;;;39.53;;
24739;SDS011;45234;48.148;17.128;2022-11-14T16:29:47;63.33;;;38.42;;
24739;SDS011;45234;48.148;17.128;2022-11-14T16:32:33;63.10;;;36.88;;
24739;SDS011;45234;48.148;17.128;2022-11-14T16:35:19;63.20;;;37.83;;
24739;SDS011;45234;48.148;17.128;2022-11-14T16:38:05;59.53;;;34.55;;
24739;SDS011;45234;48.148;17.128;2022-11-14T16:40:55;57.17;;;34.42;;
24739;SDS011;45234;48.148;17.128;2022-11-14T16:43:41;92.88;;;40.55;;
24739;SDS011;45234;48.148;17.128;2022-11-14T16:46:26;72.88;;;40.03;;
24739;SDS011;45234;48.148;17.128;2022-11-14T16:49:15;82.03;;;39.15;;
24739;SDS011;45234;48.148;17.128;2022-11-14T16:52:01;132.63;;;42.65;;
24739;SDS011;45234;48.148;17.128;2022-11-14T16:54:50;101.28;;;42.30;;
24739;SDS011;45234;48.148;17.128;2022-11-14T16:57:35;86.93;;;41.38;;
24739;SDS011;45234;48.148;17.128;2022-11-14T17:00:21;73.53;;;40.28;;
24739;SDS011;45234;48.148;17.128;2022-11-14T17:03:06;74.85;;;42.97;;
24739;SDS011;45234;48.148;17.128;2022-11-14T17:05:53;76.80;;;42.45;;
24739;SDS011;45234;48.148;17.128;2022-11-14T17:08:39;75.55;;;41.40;;
24739;SDS011;45234;48.148;17.128;2022-11-14T17:11:25;77.38;;;44.22;;
24739;SDS011;45234;48.148;17.128;2022-11-14T17:14:11;80.30;;;45.20;;
24739;SDS011;45234;48.148;17.128;2022-11-14T17:16:57;77.55;;;43.20;;
24739;SDS011;45234;48.148;17.128;2022-11-14T17:19:45;78.20;;;41.72;;
24739;SDS011;45234;48.148;17.128;2022-11-14T17:22:30;71.65;;;41.90;;
24739;SDS011;45234;48.148;17.128;2022-11-14T17:25:15;87.80;;;46.63;;
24739;SDS011;45234;48.148;17.128;2022-11-14T17:28:02;81.20;;;44.78;;
24739;SDS011;45234;48.148;17.128;2022-11-14T17:30:48;78.80;;;43.55;;
24739;SDS011;45234;48.148;17.128;2022-11-14T17:33:33;76.63;;;44.22;;
24739;SDS011;45234;48.148;17.128;2022-11-14T17:36:20;75.85;;;43.63;;
24739;SDS011;45234;48.148;17.128;2022-11-14T17:39:07;72.70;;;41.85;;
24739;SDS011;45234;48.148;17.128;2022-11-14T17:41:53;78.65;;;42.85;;
24739;SDS011;45234;48.148;17.128;2022-11-14T17:44:38;77.55;;;42.38;;
24739;SDS011;45234;48.148;17.128;2022-11-14T17:47:23;81.78;;;43.78;;
24739;SDS011;45234;48.148;17.128;2022-11-14T17:50:08;85.38;;;45.95;;
24739;SDS011;45234;48.148;17.128;2022-11-14T17:52:53;88.90;;;48.40;;
24739;SDS011;45234;48.148;17.128;2022-11-14T17:55:39;104.45;;;51.30;;
24739;SDS011;45234;48.148;17.128;2022-11-14T17:58:25;131.95;;;51.08;;
24739;SDS011;45234;48.148;17.128;2022-11-14T18:01:14;153.88;;;49.67;;
24739;SDS011;45234;48.148;17.128;2022-11-14T18:04:02;203.85;;;51.42;;
24739;SDS011;45234;48.148;17.128;2022-11-14T18:06:49;199.60;;;50.33;;